sensor_id;sensor_type;location;lat;lon;timestamp;P1;durP1;ratioP1;P2;durP2;ratioP2
41253;SDS011;26987;59.928;30.306;2024-01-15T00:00:22;14.60;;;5.80;;
41253;SDS011;26987;59.928;30.306;2024-01-15T00:02:50;17.57;;;6.27;;
41253;SDS011;26987;59.928;30.306;2024-01-15T00:05:21;16.90;;;6.13;;
41253;SDS011;26987;59.928;30.306;2024-01-15T00:08:04;13.13;;;5.57;;
41253;SDS011;26987;59.928;30.306;2024-01-15T00:10:35;13.80;;;6.03;;
41253;SDS011;26987;59.928;30.306;2024-01-15T00:13:08;14.77;;;5.90;;
41253;SDS011;26987;59.928;30.306;2024-01-15T00:15:40;17.33;;;6.33;;
41253;SDS011;26987;59.928;30.306;2024-01-15T00:18:11;17.10;;;6.57;;
41253;SDS011;26987;59.928;30.306;2024-01-15T00:20:42;14.20;;;6.37;;
41253;SDS011;26987;59.928;30.306;2024-01-15T00:23:12;16.10;;;6.50;;
41253;SDS011;26987;59.928;30.306;2024-01-15T00:25:50;15.80;;;7.40;;
41253;SDS011;26987;59.928;30.306;2024-01-15T00:28:21;21.45;;;6.25;;
41253;SDS011;26987;59.928;30.306;2024-01-15T00:30:49;16.17;;;6.90;;
41253;SDS011;26987;59.928;30.306;2024-01-15T00:33:17;18.93;;;6.63;;
41253;SDS011;26987;59.928;30.306;2024-01-15T00:35:45;15.10;;;6.73;;
41253;SDS011;26987;59.928;30.306;2024-01-15T00:38:13;12.13;;;5.10;;
41253;SDS011;26987;59.928;30.306;2024-01-15T00:40:41;13.53;;;6.00;;
41253;SDS011;26987;59.928;30.306;2024-01-15T00:43:10;16.10;;;7.17;;
41253;SDS011;26987;59.928;30.306;2024-01-15T00:45:38;15.53;;;6.90;;
41253;SDS011;26987;59.928;30.306;2024-01-15T00:48:06;18.10;;;7.93;;
41253;SDS011;26987;59.928;30.306;2024-01-15T00:50:34;18.47;;;7.73;;
41253;SDS011;26987;59.928;30.306;2024-01-15T00:53:02;17.37;;;7.83;;
41253;SDS011;26987;59.928;30.306;2024-01-15T00:55:31;15.60;;;7.30;;
41253;SDS011;26987;59.928;30.306;2024-01-15T00:58:02;15.33;;;7.10;;
41253;SDS011;26987;59.928;30.306;2024-01-15T01:00:34;20.17;;;6.67;;
41253;SDS011;26987;59.928;30.306;2024-01-15T01:03:02;12.73;;;5.57;;
41253;SDS011;26987;59.928;30.306;2024-01-15T01:05:30;16.60;;;6.37;;
41253;SDS011;26987;59.928;30.306;2024-01-15T01:07:58;13.40;;;6.20;;
41253;SDS011;26987;59.928;30.306;2024-01-15T01:10:26;14.30;;;6.07;;
41253;SDS011;26987;59.928;30.306;2024-01-15T01:12:55;17.13;;;6.23;;
41253;SDS011;26987;59.928;30.306;2024-01-15T01:15:22;20.47;;;6.33;;
41253;SDS011;26987;59.928;30.306;2024-01-15T01:17:52;15.53;;;6.47;;
41253;SDS011;26987;59.928;30.306;2024-01-15T01:20:20;17.97;;;7.53;;
41253;SDS011;26987;59.928;30.306;2024-01-15T01:22:48;16.00;;;6.97;;
41253;SDS011;26987;59.928;30.306;2024-01-15T01:25:16;14.97;;;6.13;;
41253;SDS011;26987;59.928;30.306;2024-01-15T01:27:43;15.03;;;6.03;;
41253;SDS011;26987;59.928;30.306;2024-01-15T01:30:11;17.03;;;6.47;;
41253;SDS011;26987;59.928;30.306;2024-01-15T01:32:40;16.90;;;6.20;;
41253;SDS011;26987;59.928;30.306;2024-01-15T01:35:09;18.00;;;6.90;;
41253;SDS011;26987;59.928;30.306;2024-01-15T01:37:37;10.60;;;5.83;;
41253;SDS011;26987;59.928;30.306;2024-01-15T01:40:05;15.73;;;7.27;;
41253;SDS011;26987;59.928;30.306;2024-01-15T01:42:34;15.07;;;6.73;;
41253;SDS011;26987;59.928;30.306;2024-01-15T01:45:02;13.43;;;6.00;;
41253;SDS011;26987;59.928;30.306;2024-01-15T01:47:31;13.73;;;7.10;;
41253;SDS011;26987;59.928;30.306;2024-01-15T01:49:59;14.33;;;7.23;;
41253;SDS011;26987;59.928;30.306;2024-01-15T01:52:31;20.73;;;8.23;;
41253;SDS011;26987;59.928;30.306;2024-01-15T01:55:00;16.10;;;7.77;;
41253;SDS011;26987;59.928;30.306;2024-01-15T01:57:29;18.00;;;8.13;;
41253;SDS011;26987;59.928;30.306;2024-01-15T02:00:00;20.33;;;8.40;;
41253;SDS011;26987;59.928;30.306;2024-01-15T02:02:37;14.13;;;6.90;;
41253;SDS011;26987;59.928;30.306;2024-01-15T02:05:06;14.87;;;7.10;;
41253;SDS011;26987;59.928;30.306;2024-01-15T02:07:36;16.20;;;6.80;;
41253;SDS011;26987;59.928;30.306;2024-01-15T02:10:04;21.60;;;8.17;;
41253;SDS011;26987;59.928;30.306;2024-01-15T02:12:33;17.07;;;6.83;;
41253;SDS011;26987;59.928;30.306;2024-01-15T02:15:01;15.27;;;6.60;;
41253;SDS011;26987;59.928;30.306;2024-01-15T02:17:29;15.67;;;6.80;;
41253;SDS011;26987;59.928;30.306;2024-01-15T02:19:57;18.30;;;6.80;;
41253;SDS011;26987;59.928;30.306;2024-01-15T02:22:24;14.17;;;5.93;;
41253;SDS011;26987;59.928;30.306;2024-01-15T02:24:54;16.80;;;6.57;;
41253;SDS011;26987;59.928;30.306;2024-01-15T02:27:22;14.87;;;7.07;;
41253;SDS011;26987;59.928;30.306;2024-01-15T02:29:50;12.93;;;6.20;;
41253;SDS011;26987;59.928;30.306;2024-01-15T02:32:19;17.33;;;7.37;;
41253;SDS011;26987;59.928;30.306;2024-01-15T02:34:47;15.20;;;6.03;;
41253;SDS011;26987;59.928;30.306;2024-01-15T02:37:14;18.40;;;7.03;;
41253;SDS011;26987;59.928;30.306;2024-01-15T02:39:42;21.03;;;7.50;;
41253;SDS011;26987;59.928;30.306;2024-01-15T02:42:12;15.10;;;7.03;;
41253;SDS011;26987;59.928;30.306;2024-01-15T02:44:40;19.50;;;8.13;;
41253;SDS011;26987;59.928;30.306;2024-01-15T02:47:07;20.87;;;8.23;;
41253;SDS011;26987;59.928;30.306;2024-01-15T02:49:35;18.90;;;8.50;;
41253;SDS011;26987;59.928;30.306;2024-01-15T02:52:04;20.17;;;9.27;;
41253;SDS011;26987;59.928;30.306;2024-01-15T02:54:32;17.57;;;7.77;;
41253;SDS011;26987;59.928;30.306;2024-01-15T02:57:00;14.73;;;7.53;;
41253;SDS011;26987;59.928;30.306;2024-01-15T02:59:29;15.40;;;7.03;;
41253;SDS011;26987;59.928;30.306;2024-01-15T03:01:57;18.00;;;7.90;;
41253;SDS011;26987;59.928;30.306;2024-01-15T03:04:25;18.57;;;8.73;;
41253;SDS011;26987;59.928;30.306;2024-01-15T03:06:53;18.03;;;7.80;;
41253;SDS011;26987;59.928;30.306;2024-01-15T03:09:21;18.27;;;7.37;;
41253;SDS011;26987;59.928;30.306;2024-01-15T03:11:49;17.10;;;7.77;;
41253;SDS011;26987;59.928;30.306;2024-01-15T03:14:18;18.00;;;7.87;;
41253;SDS011;26987;59.928;30.306;2024-01-15T03:16:47;19.37;;;8.27;;
41253;SDS011;26987;59.928;30.306;2024-01-15T03:19:15;20.97;;;8.97;;
41253;SDS011;26987;59.928;30.306;2024-01-15T03:21:43;20.87;;;8.23;;
41253;SDS011;26987;59.928;30.306;2024-01-15T03:24:11;19.23;;;8.00;;
41253;SDS011;26987;59.928;30.306;2024-01-15T03:26:39;22.57;;;8.60;;
41253;SDS011;26987;59.928;30.306;2024-01-15T03:29:07;18.63;;;8.57;;
41253;SDS011;26987;59.928;30.306;2024-01-15T03:31:35;20.70;;;8.60;;
41253;SDS011;26987;59.928;30.306;2024-01-15T03:34:04;20.80;;;9.00;;
41253;SDS011;26987;59.928;30.306;2024-01-15T03:36:32;17.90;;;8.30;;
41253;SDS011;26987;59.928;30.306;2024-01-15T03:39:00;21.97;;;9.37;;
41253;SDS011;26987;59.928;30.306;2024-01-15T03:41:28;20.43;;;9.07;;
41253;SDS011;26987;59.928;30.306;2024-01-15T03:43:56;17.67;;;8.50;;
41253;SDS011;26987;59.928;30.306;2024-01-15T03:46:25;21.97;;;8.43;;
41253;SDS011;26987;59.928;30.306;2024-01-15T03:48:53;19.53;;;9.03;;
41253;SDS011;26987;59.928;30.306;2024-01-15T03:51:22;22.33;;;8.17;;
41253;SDS011;26987;59.928;30.306;2024-01-15T03:53:50;19.40;;;8.93;;
41253;SDS011;26987;59.928;30.306;2024-01-15T03:56:18;18.20;;;7.70;;
41253;SDS011;26987;59.928;30.306;2024-01-15T03:58:46;23.37;;;8.37;;
41253;SDS011;26987;59.928;30.306;2024-01-15T04:01:14;18.97;;;8.17;;
41253;SDS011;26987;59.928;30.306;2024-01-15T04:03:42;19.37;;;8.30;;
41253;SDS011;26987;59.928;30.306;2024-01-15T04:06:10;17.30;;;8.07;;
41253;SDS011;26987;59.928;30.306;2024-01-15T04:08:39;27.83;;;10.63;;
41253;SDS011;26987;59.928;30.306;2024-01-15T04:11:07;22.67;;;10.43;;
41253;SDS011;26987;59.928;30.306;2024-01-15T04:13:35;28.13;;;11.77;;
41253;SDS011;26987;59.928;30.306;2024-01-15T04:16:03;22.23;;;10.27;;
41253;SDS011;26987;59.928;30.306;2024-01-15T04:18:31;26.00;;;10.53;;
41253;SDS011;26987;59.928;30.306;2024-01-15T04:20:59;25.67;;;11.13;;
41253;SDS011;26987;59.928;30.306;2024-01-15T04:23:27;25.17;;;10.43;;
41253;SDS011;26987;59.928;30.306;2024-01-15T04:25:56;24.33;;;10.93;;
41253;SDS011;26987;59.928;30.306;2024-01-15T04:28:24;30.03;;;10.30;;
41253;SDS011;26987;59.928;30.306;2024-01-15T04:30:52;25.80;;;10.80;;
41253;SDS011;26987;59.928;30.306;2024-01-15T04:33:20;26.87;;;9.90;;
41253;SDS011;26987;59.928;30.306;2024-01-15T04:35:49;28.33;;;10.23;;
41253;SDS011;26987;59.928;30.306;2024-01-15T04:38:17;29.20;;;11.47;;
41253;SDS011;26987;59.928;30.306;2024-01-15T04:40:44;27.23;;;10.83;;
41253;SDS011;26987;59.928;30.306;2024-01-15T04:43:14;25.27;;;10.20;;
41253;SDS011;26987;59.928;30.306;2024-01-15T04:45:42;23.73;;;11.00;;
41253;SDS011;26987;59.928;30.306;2024-01-15T04:48:09;28.90;;;11.90;;
41253;SDS011;26987;59.928;30.306;2024-01-15T04:50:37;31.77;;;10.80;;
41253;SDS011;26987;59.928;30.306;2024-01-15T04:53:05;32.60;;;13.13;;
41253;SDS011;26987;59.928;30.306;2024-01-15T04:55:33;35.00;;;13.57;;
41253;SDS011;26987;59.928;30.306;2024-01-15T04:58:01;34.87;;;12.43;;
41253;SDS011;26987;59.928;30.306;2024-01-15T05:00:33;41.80;;;13.70;;
41253;SDS011;26987;59.928;30.306;2024-01-15T05:03:01;33.97;;;14.47;;
41253;SDS011;26987;59.928;30.306;2024-01-15T05:05:29;38.80;;;14.60;;
41253;SDS011;26987;59.928;30.306;2024-01-15T05:07:57;36.70;;;14.97;;
41253;SDS011;26987;59.928;30.306;2024-01-15T05:10:25;45.47;;;15.10;;
41253;SDS011;26987;59.928;30.306;2024-01-15T05:12:53;33.23;;;13.53;;
41253;SDS011;26987;59.928;30.306;2024-01-15T05:15:20;38.93;;;14.50;;
41253;SDS011;26987;59.928;30.306;2024-01-15T05:17:50;35.10;;;13.80;;
41253;SDS011;26987;59.928;30.306;2024-01-15T05:20:18;43.57;;;16.03;;
41253;SDS011;26987;59.928;30.306;2024-01-15T05:22:46;44.20;;;14.47;;
41253;SDS011;26987;59.928;30.306;2024-01-15T05:25:13;36.27;;;15.00;;
41253;SDS011;26987;59.928;30.306;2024-01-15T05:27:41;40.20;;;15.67;;
41253;SDS011;26987;59.928;30.306;2024-01-15T05:30:10;47.37;;;15.53;;
41253;SDS011;26987;59.928;30.306;2024-01-15T05:32:38;47.87;;;17.43;;
41253;SDS011;26987;59.928;30.306;2024-01-15T05:35:07;47.97;;;17.50;;
41253;SDS011;26987;59.928;30.306;2024-01-15T05:37:35;55.23;;;18.10;;
41253;SDS011;26987;59.928;30.306;2024-01-15T05:40:04;45.90;;;17.63;;
41253;SDS011;26987;59.928;30.306;2024-01-15T05:42:32;50.73;;;17.80;;
41253;SDS011;26987;59.928;30.306;2024-01-15T05:45:00;49.70;;;18.37;;
41253;SDS011;26987;59.928;30.306;2024-01-15T05:47:30;56.47;;;19.67;;
41253;SDS011;26987;59.928;30.306;2024-01-15T05:49:58;52.53;;;18.77;;
41253;SDS011;26987;59.928;30.306;2024-01-15T05:52:29;55.37;;;18.50;;
41253;SDS011;26987;59.928;30.306;2024-01-15T05:54:56;48.07;;;18.67;;
41253;SDS011;26987;59.928;30.306;2024-01-15T05:57:24;60.33;;;20.97;;
41253;SDS011;26987;59.928;30.306;2024-01-15T05:59:52;52.33;;;19.00;;
41253;SDS011;26987;59.928;30.306;2024-01-15T06:02:20;53.03;;;19.03;;
41253;SDS011;26987;59.928;30.306;2024-01-15T06:04:48;59.27;;;19.50;;
41253;SDS011;26987;59.928;30.306;2024-01-15T06:07:16;68.73;;;22.03;;
41253;SDS011;26987;59.928;30.306;2024-01-15T06:09:46;65.30;;;21.60;;
41253;SDS011;26987;59.928;30.306;2024-01-15T06:12:13;67.47;;;23.00;;
41253;SDS011;26987;59.928;30.306;2024-01-15T06:14:41;54.13;;;21.50;;
41253;SDS011;26987;59.928;30.306;2024-01-15T06:17:09;69.73;;;21.50;;
41253;SDS011;26987;59.928;30.306;2024-01-15T06:19:37;63.37;;;21.77;;
41253;SDS011;26987;59.928;30.306;2024-01-15T06:22:05;61.60;;;20.60;;
41253;SDS011;26987;59.928;30.306;2024-01-15T06:24:36;59.53;;;20.50;;
41253;SDS011;26987;59.928;30.306;2024-01-15T06:27:06;52.97;;;17.90;;
41253;SDS011;26987;59.928;30.306;2024-01-15T06:29:37;64.77;;;20.67;;
41253;SDS011;26987;59.928;30.306;2024-01-15T06:32:05;54.73;;;18.87;;
41253;SDS011;26987;59.928;30.306;2024-01-15T06:34:33;56.83;;;18.90;;
41253;SDS011;26987;59.928;30.306;2024-01-15T06:37:00;56.97;;;19.60;;
41253;SDS011;26987;59.928;30.306;2024-01-15T06:39:28;57.17;;;19.50;;
41253;SDS011;26987;59.928;30.306;2024-01-15T06:41:56;52.57;;;18.27;;
41253;SDS011;26987;59.928;30.306;2024-01-15T06:44:25;54.53;;;18.27;;
41253;SDS011;26987;59.928;30.306;2024-01-15T06:46:53;54.77;;;19.20;;
41253;SDS011;26987;59.928;30.306;2024-01-15T06:49:23;57.83;;;18.90;;
41253;SDS011;26987;59.928;30.306;2024-01-15T06:51:51;48.27;;;17.27;;
41253;SDS011;26987;59.928;30.306;2024-01-15T06:54:19;57.93;;;18.50;;
41253;SDS011;26987;59.928;30.306;2024-01-15T06:56:46;49.00;;;18.17;;
41253;SDS011;26987;59.928;30.306;2024-01-15T06:59:14;52.17;;;18.10;;
41253;SDS011;26987;59.928;30.306;2024-01-15T07:01:43;63.43;;;19.97;;
41253;SDS011;26987;59.928;30.306;2024-01-15T07:04:11;48.97;;;18.60;;
41253;SDS011;26987;59.928;30.306;2024-01-15T07:06:39;61.03;;;20.13;;
41253;SDS011;26987;59.928;30.306;2024-01-15T07:09:07;53.23;;;19.77;;
41253;SDS011;26987;59.928;30.306;2024-01-15T07:11:41;57.73;;;19.17;;
41253;SDS011;26987;59.928;30.306;2024-01-15T07:14:14;56.13;;;17.77;;
41253;SDS011;26987;59.928;30.306;2024-01-15T07:16:43;54.90;;;18.90;;
41253;SDS011;26987;59.928;30.306;2024-01-15T07:19:11;54.93;;;18.70;;
41253;SDS011;26987;59.928;30.306;2024-01-15T07:21:39;52.13;;;19.27;;
41253;SDS011;26987;59.928;30.306;2024-01-15T07:24:09;57.37;;;19.37;;
41253;SDS011;26987;59.928;30.306;2024-01-15T07:26:37;61.23;;;20.20;;
41253;SDS011;26987;59.928;30.306;2024-01-15T07:29:26;51.53;;;17.47;;
41253;SDS011;26987;59.928;30.306;2024-01-15T07:31:56;49.43;;;18.70;;
41253;SDS011;26987;59.928;30.306;2024-01-15T07:34:27;49.73;;;19.93;;
41253;SDS011;26987;59.928;30.306;2024-01-15T07:36:59;45.13;;;17.70;;
41253;SDS011;26987;59.928;30.306;2024-01-15T07:39:27;47.63;;;17.53;;
41253;SDS011;26987;59.928;30.306;2024-01-15T07:41:57;56.43;;;17.20;;
41253;SDS011;26987;59.928;30.306;2024-01-15T07:44:24;49.80;;;18.57;;
41253;SDS011;26987;59.928;30.306;2024-01-15T07:46:57;48.50;;;17.20;;
41253;SDS011;26987;59.928;30.306;2024-01-15T07:49:27;56.80;;;17.53;;
41253;SDS011;26987;59.928;30.306;2024-01-15T07:51:58;53.80;;;16.73;;
41253;SDS011;26987;59.928;30.306;2024-01-15T07:54:26;43.37;;;16.57;;
41253;SDS011;26987;59.928;30.306;2024-01-15T07:56:55;46.97;;;18.47;;
41253;SDS011;26987;59.928;30.306;2024-01-15T07:59:24;42.80;;;15.47;;
41253;SDS011;26987;59.928;30.306;2024-01-15T08:01:53;44.40;;;15.60;;
41253;SDS011;26987;59.928;30.306;2024-01-15T08:04:22;36.83;;;15.23;;
41253;SDS011;26987;59.928;30.306;2024-01-15T08:06:50;44.53;;;17.43;;
41253;SDS011;26987;59.928;30.306;2024-01-15T08:09:18;52.63;;;18.57;;
41253;SDS011;26987;59.928;30.306;2024-01-15T08:11:46;39.87;;;15.80;;
41253;SDS011;26987;59.928;30.306;2024-01-15T08:14:15;50.80;;;16.33;;
41253;SDS011;26987;59.928;30.306;2024-01-15T08:16:43;46.07;;;17.67;;
41253;SDS011;26987;59.928;30.306;2024-01-15T08:19:11;45.17;;;16.30;;
41253;SDS011;26987;59.928;30.306;2024-01-15T08:21:41;37.63;;;15.17;;
41253;SDS011;26987;59.928;30.306;2024-01-15T08:24:09;49.03;;;15.37;;
41253;SDS011;26987;59.928;30.306;2024-01-15T08:26:37;51.17;;;17.07;;
41253;SDS011;26987;59.928;30.306;2024-01-15T08:29:05;48.97;;;14.87;;
41253;SDS011;26987;59.928;30.306;2024-01-15T08:31:33;52.37;;;17.70;;
41253;SDS011;26987;59.928;30.306;2024-01-15T08:34:01;54.33;;;18.47;;
41253;SDS011;26987;59.928;30.306;2024-01-15T08:36:29;45.80;;;17.00;;
41253;SDS011;26987;59.928;30.306;2024-01-15T08:38:58;45.73;;;17.70;;
41253;SDS011;26987;59.928;30.306;2024-01-15T08:41:26;46.50;;;17.20;;
41253;SDS011;26987;59.928;30.306;2024-01-15T08:43:54;44.73;;;17.57;;
41253;SDS011;26987;59.928;30.306;2024-01-15T08:46:22;49.87;;;17.47;;
41253;SDS011;26987;59.928;30.306;2024-01-15T08:48:54;51.67;;;19.13;;
41253;SDS011;26987;59.928;30.306;2024-01-15T08:51:24;53.00;;;18.20;;
41253;SDS011;26987;59.928;30.306;2024-01-15T08:53:54;49.00;;;17.97;;
41253;SDS011;26987;59.928;30.306;2024-01-15T08:56:25;54.00;;;18.33;;
41253;SDS011;26987;59.928;30.306;2024-01-15T08:58:53;52.30;;;18.20;;
41253;SDS011;26987;59.928;30.306;2024-01-15T09:01:21;48.20;;;17.80;;
41253;SDS011;26987;59.928;30.306;2024-01-15T09:03:49;41.93;;;16.83;;
41253;SDS011;26987;59.928;30.306;2024-01-15T09:06:17;47.60;;;16.13;;
41253;SDS011;26987;59.928;30.306;2024-01-15T09:08:46;50.67;;;17.73;;
41253;SDS011;26987;59.928;30.306;2024-01-15T09:11:14;50.30;;;18.83;;
41253;SDS011;26987;59.928;30.306;2024-01-15T09:13:44;45.83;;;19.00;;
41253;SDS011;26987;59.928;30.306;2024-01-15T09:16:12;44.57;;;16.50;;
41253;SDS011;26987;59.928;30.306;2024-01-15T09:18:40;52.57;;;17.50;;
41253;SDS011;26987;59.928;30.306;2024-01-15T09:21:08;47.37;;;16.50;;
41253;SDS011;26987;59.928;30.306;2024-01-15T09:23:36;39.23;;;17.93;;
41253;SDS011;26987;59.928;30.306;2024-01-15T09:26:09;45.60;;;17.67;;
41253;SDS011;26987;59.928;30.306;2024-01-15T09:28:36;42.80;;;16.03;;
41253;SDS011;26987;59.928;30.306;2024-01-15T09:31:06;42.10;;;16.17;;
41253;SDS011;26987;59.928;30.306;2024-01-15T09:33:34;47.80;;;17.57;;
41253;SDS011;26987;59.928;30.306;2024-01-15T09:36:02;46.73;;;17.30;;
41253;SDS011;26987;59.928;30.306;2024-01-15T09:38:31;48.40;;;17.73;;
41253;SDS011;26987;59.928;30.306;2024-01-15T09:40:59;41.97;;;15.03;;
41253;SDS011;26987;59.928;30.306;2024-01-15T09:43:27;42.67;;;15.27;;
41253;SDS011;26987;59.928;30.306;2024-01-15T09:45:55;40.63;;;15.07;;
41253;SDS011;26987;59.928;30.306;2024-01-15T09:48:24;41.20;;;15.73;;
41253;SDS011;26987;59.928;30.306;2024-01-15T09:50:52;49.10;;;17.77;;
41253;SDS011;26987;59.928;30.306;2024-01-15T09:53:21;44.70;;;17.27;;
41253;SDS011;26987;59.928;30.306;2024-01-15T09:55:49;42.17;;;18.07;;
41253;SDS011;26987;59.928;30.306;2024-01-15T09:58:20;47.37;;;19.13;;
41253;SDS011;26987;59.928;30.306;2024-01-15T10:00:48;41.07;;;15.63;;
41253;SDS011;26987;59.928;30.306;2024-01-15T10:03:17;41.70;;;17.20;;
41253;SDS011;26987;59.928;30.306;2024-01-15T10:05:46;46.97;;;15.90;;
41253;SDS011;26987;59.928;30.306;2024-01-15T10:08:15;45.73;;;16.30;;
41253;SDS011;26987;59.928;30.306;2024-01-15T10:10:43;43.10;;;15.67;;
41253;SDS011;26987;59.928;30.306;2024-01-15T10:13:11;48.07;;;16.80;;
41253;SDS011;26987;59.928;30.306;2024-01-15T10:15:40;45.40;;;16.27;;
41253;SDS011;26987;59.928;30.306;2024-01-15T10:18:09;47.77;;;16.27;;
41253;SDS011;26987;59.928;30.306;2024-01-15T10:20:37;41.77;;;15.47;;
41253;SDS011;26987;59.928;30.306;2024-01-15T10:23:06;37.67;;;15.67;;
41253;SDS011;26987;59.928;30.306;2024-01-15T10:25:35;48.73;;;16.87;;
41253;SDS011;26987;59.928;30.306;2024-01-15T10:28:03;42.07;;;16.80;;
41253;SDS011;26987;59.928;30.306;2024-01-15T10:30:32;37.53;;;15.30;;
41253;SDS011;26987;59.928;30.306;2024-01-15T10:33:01;45.10;;;17.73;;
41253;SDS011;26987;59.928;30.306;2024-01-15T10:36:02;44.33;;;17.63;;
41253;SDS011;26987;59.928;30.306;2024-01-15T10:38:38;41.85;;;15.77;;
41253;SDS011;26987;59.928;30.306;2024-01-15T10:41:15;39.43;;;15.50;;
41253;SDS011;26987;59.928;30.306;2024-01-15T10:43:48;44.60;;;15.07;;
41253;SDS011;26987;59.928;30.306;2024-01-15T10:46:18;46.57;;;15.47;;
41253;SDS011;26987;59.928;30.306;2024-01-15T10:48:54;42.03;;;15.30;;
41253;SDS011;26987;59.928;30.306;2024-01-15T10:51:25;39.63;;;15.93;;
41253;SDS011;26987;59.928;30.306;2024-01-15T10:53:55;43.00;;;15.40;;
41253;SDS011;26987;59.928;30.306;2024-01-15T10:56:24;42.80;;;15.37;;
41253;SDS011;26987;59.928;30.306;2024-01-15T10:58:57;43.13;;;14.90;;
41253;SDS011;26987;59.928;30.306;2024-01-15T11:01:26;46.50;;;17.13;;
41253;SDS011;26987;59.928;30.306;2024-01-15T11:06:56;44.60;;;16.67;;
41253;SDS011;26987;59.928;30.306;2024-01-15T11:09:32;39.20;;;15.60;;
41253;SDS011;26987;59.928;30.306;2024-01-15T11:12:06;39.00;;;13.80;;
41253;SDS011;26987;59.928;30.306;2024-01-15T11:14:35;47.43;;;15.87;;
41253;SDS011;26987;59.928;30.306;2024-01-15T11:17:06;36.47;;;14.13;;
41253;SDS011;26987;59.928;30.306;2024-01-15T11:19:36;38.43;;;14.80;;
41253;SDS011;26987;59.928;30.306;2024-01-15T11:22:07;36.78;;;14.88;;
41253;SDS011;26987;59.928;30.306;2024-01-15T11:24:40;40.93;;;15.07;;
41253;SDS011;26987;59.928;30.306;2024-01-15T11:27:14;37.23;;;14.70;;
41253;SDS011;26987;59.928;30.306;2024-01-15T11:30:03;34.80;;;13.23;;
41253;SDS011;26987;59.928;30.306;2024-01-15T11:32:33;34.93;;;13.30;;
41253;SDS011;26987;59.928;30.306;2024-01-15T11:35:01;35.43;;;14.30;;
41253;SDS011;26987;59.928;30.306;2024-01-15T11:40:37;37.38;;;14.25;;
41253;SDS011;26987;59.928;30.306;2024-01-15T11:43:08;53.57;;;16.03;;
41253;SDS011;26987;59.928;30.306;2024-01-15T11:45:36;42.90;;;14.20;;
41253;SDS011;26987;59.928;30.306;2024-01-15T11:48:11;44.30;;;15.80;;
41253;SDS011;26987;59.928;30.306;2024-01-15T11:50:40;39.83;;;14.68;;
41253;SDS011;26987;59.928;30.306;2024-01-15T11:53:14;37.40;;;14.57;;
41253;SDS011;26987;59.928;30.306;2024-01-15T11:55:46;40.30;;;13.67;;
41253;SDS011;26987;59.928;30.306;2024-01-15T11:58:18;34.30;;;13.00;;
41253;SDS011;26987;59.928;30.306;2024-01-15T12:00:47;33.13;;;14.43;;
41253;SDS011;26987;59.928;30.306;2024-01-15T12:03:16;43.10;;;15.60;;
41253;SDS011;26987;59.928;30.306;2024-01-15T12:05:43;39.50;;;13.47;;
41253;SDS011;26987;59.928;30.306;2024-01-15T12:08:11;42.47;;;14.97;;
41253;SDS011;26987;59.928;30.306;2024-01-15T12:10:40;33.73;;;13.20;;
41253;SDS011;26987;59.928;30.306;2024-01-15T12:13:11;33.43;;;12.57;;
41253;SDS011;26987;59.928;30.306;2024-01-15T12:15:40;34.50;;;14.27;;
41253;SDS011;26987;59.928;30.306;2024-01-15T12:18:09;39.90;;;13.70;;
41253;SDS011;26987;59.928;30.306;2024-01-15T12:20:37;37.03;;;14.47;;
41253;SDS011;26987;59.928;30.306;2024-01-15T12:23:06;36.37;;;13.63;;
41253;SDS011;26987;59.928;30.306;2024-01-15T12:25:36;34.13;;;12.90;;
41253;SDS011;26987;59.928;30.306;2024-01-15T12:28:05;36.23;;;14.67;;
41253;SDS011;26987;59.928;30.306;2024-01-15T12:30:35;35.10;;;14.73;;
41253;SDS011;26987;59.928;30.306;2024-01-15T12:33:04;38.60;;;15.17;;
41253;SDS011;26987;59.928;30.306;2024-01-15T12:35:33;40.10;;;14.27;;
41253;SDS011;26987;59.928;30.306;2024-01-15T12:38:01;39.07;;;14.17;;
41253;SDS011;26987;59.928;30.306;2024-01-15T12:40:30;38.93;;;12.80;;
41253;SDS011;26987;59.928;30.306;2024-01-15T12:42:59;35.07;;;13.50;;
41253;SDS011;26987;59.928;30.306;2024-01-15T12:45:29;40.10;;;15.17;;
41253;SDS011;26987;59.928;30.306;2024-01-15T12:47:59;40.60;;;14.23;;
41253;SDS011;26987;59.928;30.306;2024-01-15T12:50:29;39.97;;;14.80;;
41253;SDS011;26987;59.928;30.306;2024-01-15T12:52:57;43.03;;;16.20;;
41253;SDS011;26987;59.928;30.306;2024-01-15T12:55:26;41.83;;;16.37;;
41253;SDS011;26987;59.928;30.306;2024-01-15T12:57:54;33.63;;;12.77;;
41253;SDS011;26987;59.928;30.306;2024-01-15T13:00:21;35.67;;;13.90;;
41253;SDS011;26987;59.928;30.306;2024-01-15T13:02:51;35.57;;;12.77;;
41253;SDS011;26987;59.928;30.306;2024-01-15T13:05:22;40.03;;;12.20;;
41253;SDS011;26987;59.928;30.306;2024-01-15T13:07:50;39.37;;;12.97;;
41253;SDS011;26987;59.928;30.306;2024-01-15T13:10:19;28.43;;;11.90;;
41253;SDS011;26987;59.928;30.306;2024-01-15T13:12:47;36.53;;;12.40;;
41253;SDS011;26987;59.928;30.306;2024-01-15T13:15:15;36.37;;;11.83;;
41253;SDS011;26987;59.928;30.306;2024-01-15T13:17:43;30.47;;;12.20;;
41253;SDS011;26987;59.928;30.306;2024-01-15T13:20:11;45.63;;;11.87;;
41253;SDS011;26987;59.928;30.306;2024-01-15T13:22:41;25.77;;;10.77;;
41253;SDS011;26987;59.928;30.306;2024-01-15T13:25:10;35.67;;;13.07;;
41253;SDS011;26987;59.928;30.306;2024-01-15T13:27:38;26.20;;;9.73;;
41253;SDS011;26987;59.928;30.306;2024-01-15T13:30:06;36.60;;;13.30;;
41253;SDS011;26987;59.928;30.306;2024-01-15T13:32:35;30.10;;;11.40;;
41253;SDS011;26987;59.928;30.306;2024-01-15T13:35:03;33.37;;;12.33;;
41253;SDS011;26987;59.928;30.306;2024-01-15T13:37:35;31.20;;;11.23;;
41253;SDS011;26987;59.928;30.306;2024-01-15T13:40:06;32.13;;;10.33;;
41253;SDS011;26987;59.928;30.306;2024-01-15T13:42:35;33.97;;;11.70;;
41253;SDS011;26987;59.928;30.306;2024-01-15T13:45:04;32.30;;;11.40;;
41253;SDS011;26987;59.928;30.306;2024-01-15T13:47:33;27.57;;;10.80;;
41253;SDS011;26987;59.928;30.306;2024-01-15T13:50:01;28.83;;;11.57;;
41253;SDS011;26987;59.928;30.306;2024-01-15T13:52:29;28.53;;;11.00;;
41253;SDS011;26987;59.928;30.306;2024-01-15T13:54:57;35.13;;;12.60;;
41253;SDS011;26987;59.928;30.306;2024-01-15T13:57:27;32.83;;;12.03;;
41253;SDS011;26987;59.928;30.306;2024-01-15T13:59:55;31.43;;;12.47;;
41253;SDS011;26987;59.928;30.306;2024-01-15T14:02:22;34.63;;;10.87;;
41253;SDS011;26987;59.928;30.306;2024-01-15T14:04:50;31.90;;;11.40;;
41253;SDS011;26987;59.928;30.306;2024-01-15T14:07:18;38.83;;;11.97;;
41253;SDS011;26987;59.928;30.306;2024-01-15T14:09:47;36.60;;;12.33;;
41253;SDS011;26987;59.928;30.306;2024-01-15T14:12:15;30.90;;;11.40;;
41253;SDS011;26987;59.928;30.306;2024-01-15T14:14:44;31.13;;;9.87;;
41253;SDS011;26987;59.928;30.306;2024-01-15T14:17:13;31.40;;;11.13;;
41253;SDS011;26987;59.928;30.306;2024-01-15T14:19:41;30.90;;;10.60;;
41253;SDS011;26987;59.928;30.306;2024-01-15T14:22:09;29.43;;;10.97;;
41253;SDS011;26987;59.928;30.306;2024-01-15T14:24:37;40.90;;;12.53;;
41253;SDS011;26987;59.928;30.306;2024-01-15T14:27:05;30.83;;;10.83;;
41253;SDS011;26987;59.928;30.306;2024-01-15T14:29:33;34.80;;;13.03;;